Time;durP1;ratioP1;P1;durP2;ratioP2;P2;SDS_P1;SDS_P2;PMS_P1;PMS_P2;Temp;Humidity;BMP_temperature;BMP_pressure;BME280_temperature;BME280_humidity;BME280_pressure;Samples;Min_cycle;Max_cycle;Signal;HPM_P1;HPM_P2
2023/11/02 00:01:28;;;;;;;3.00;1.52;;;11.80;99.90;;;;;;5041514;28;20091;-60
2023/11/02 00:03:54;;;;;;;8.02;1.77;;;11.80;99.90;;;;;;5042014;28;20378;-59
2023/11/02 00:06:37;;;;;;;3.20;1.20;;;11.80;99.90;;;;;;5045669;28;20025;-59
2023/11/02 00:09:23;;;;;;;1.83;1.02;;;11.80;99.90;;;;;;5043292;28;20065;-59
2023/11/02 00:12:01;;;;;;;2.03;1.20;;;11.80;99.90;;;;;;5041118;28;20498;-59
2023/11/02 00:14:32;;;;;;;5.38;1.10;;;11.80;99.90;;;;;;5040048;28;20024;-59
2023/11/02 00:16:58;;;;;;;3.60;1.33;;;11.80;99.90;;;;;;5040598;28;20021;-59
2023/11/02 00:19:30;;;;;;;6.03;1.20;;;11.80;99.90;;;;;;5044876;28;20457;-59
2023/11/02 00:21:57;;;;;;;2.75;0.90;;;11.70;99.90;;;;;;5045937;28;20037;-60
2023/11/02 00:24:22;;;;;;;3.03;0.95;;;11.80;99.90;;;;;;5043169;28;20031;-59
2023/11/02 00:26:48;;;;;;;2.95;1.67;;;11.80;99.90;;;;;;5043583;28;20037;-60
2023/11/02 00:29:14;;;;;;;2.60;1.27;;;11.70;99.90;;;;;;5047959;28;20035;-60
2023/11/02 00:31:39;;;;;;;6.00;1.70;;;11.70;99.90;;;;;;5052530;28;20021;-59
2023/11/02 00:34:05;;;;;;;3.78;2.03;;;11.80;99.90;;;;;;5052200;28;20398;-60
2023/11/02 00:36:31;;;;;;;4.53;0.98;;;11.80;99.90;;;;;;5052262;28;20025;-59
2023/11/02 00:38:57;;;;;;;1.20;1.10;;;11.80;99.90;;;;;;5051799;28;20071;-59
2023/11/02 00:41:23;;;;;;;3.08;1.30;;;11.80;99.90;;;;;;5052286;28;20044;-60
2023/11/02 00:43:48;;;;;;;3.20;1.05;;;11.80;99.90;;;;;;5052364;28;20041;-60
2023/11/02 00:46:14;;;;;;;3.35;1.40;;;11.80;99.90;;;;;;5052047;28;20040;-60
2023/11/02 00:48:40;;;;;;;6.93;1.35;;;11.70;99.90;;;;;;5051771;28;20025;-60
2023/11/02 00:51:30;;;;;;;2.65;1.13;;;11.70;99.90;;;;;;5052030;28;20036;-60
2023/11/02 00:53:58;;;;;;;6.32;1.50;;;11.70;99.90;;;;;;5051689;28;20048;-60
2023/11/02 00:56:29;;;;;;;5.95;1.10;;;11.70;99.90;;;;;;5051629;28;20111;-59
2023/11/02 00:58:55;;;;;;;;;;;11.70;99.90;;;;;;5051062;28;20021;-60
2023/11/02 01:01:24;;;;;;;4.03;1.73;;;11.60;99.90;;;;;;5052059;28;19920;-60
2023/11/02 01:04:28;;;;;;;5.47;1.00;;;11.60;99.90;;;;;;5051995;28;20029;-60
2023/11/02 01:06:54;;;;;;;6.15;1.92;;;11.60;99.90;;;;;;5039007;28;20163;-60
2023/11/02 01:09:47;;;;;;;4.22;1.10;;;11.50;99.90;;;;;;5051584;28;20108;-59
2023/11/02 01:12:37;;;;;;;2.28;1.00;;;11.50;99.90;;;;;;5051609;28;20395;-60
2023/11/02 01:15:40;;;;;;;4.47;1.23;;;11.40;99.90;;;;;;5051394;28;20053;-59
2023/11/02 01:18:05;;;;;;;2.55;1.00;;;11.40;99.90;;;;;;5051155;28;20098;-59
2023/11/02 01:20:43;;;;;;;4.63;1.05;;;11.30;99.90;;;;;;5051616;28;20233;-59
2023/11/02 01:23:13;;;;;;;3.88;1.17;;;11.20;99.90;;;;;;5051708;28;20024;-59
2023/11/02 01:25:43;;;;;;;;;;;11.20;99.90;;;;;;5051937;28;20025;-60
2023/11/02 01:28:14;;;;;;;2.13;1.30;;;11.10;99.90;;;;;;5050969;28;20562;-60
2023/11/02 01:30:40;;;;;;;5.38;1.08;;;11.10;99.90;;;;;;5051201;28;20033;-59
2023/11/02 01:33:34;;;;;;;2.63;1.08;;;11.00;99.90;;;;;;5051188;28;20035;-59
2023/11/02 01:36:03;;;;;;;2.30;1.33;;;10.90;99.90;;;;;;5051180;28;20474;-60
2023/11/02 01:38:30;;;;;;;7.20;1.20;;;10.90;99.90;;;;;;5051523;28;20031;-60
2023/11/02 01:41:00;;;;;;;3.70;1.02;;;10.80;99.90;;;;;;5051366;28;20047;-60
2023/11/02 01:43:35;;;;;;;3.22;1.63;;;10.70;99.90;;;;;;5051247;28;20029;-60
2023/11/02 01:46:04;;;;;;;0.93;0.82;;;10.70;99.90;;;;;;5050985;28;20316;-60
2023/11/02 01:48:43;;;;;;;2.60;1.00;;;10.60;99.90;;;;;;5049415;28;20029;-60
2023/11/02 01:51:15;;;;;;;3.47;1.00;;;10.60;99.90;;;;;;5050817;28;20025;-60
2023/11/02 01:53:55;;;;;;;5.00;1.35;;;10.60;99.90;;;;;;5051029;28;20479;-59
2023/11/02 01:56:54;;;;;;;1.33;0.90;;;10.60;99.90;;;;;;5051120;28;20057;-60
2023/11/02 01:59:33;;;;;;;4.55;1.48;;;10.60;99.90;;;;;;5050525;28;20329;-59
2023/11/02 02:02:07;;;;;;;5.63;1.38;;;10.60;99.90;;;;;;5049313;28;20052;-60
2023/11/02 02:04:50;;;;;;;3.33;1.10;;;10.50;99.90;;;;;;5050613;28;20071;-60
2023/11/02 02:07:49;;;;;;;6.00;1.40;;;10.50;99.90;;;;;;5048656;28;20574;-60
2023/11/02 02:10:32;;;;;;;2.92;1.10;;;10.50;99.90;;;;;;5050412;28;20025;-60
2023/11/02 02:13:24;;;;;;;5.45;1.20;;;10.50;99.90;;;;;;5050554;28;20020;-60
2023/11/02 02:16:14;;;;;;;6.75;1.40;;;10.40;99.90;;;;;;5037628;28;20025;-60
2023/11/02 02:18:51;;;;;;;4.78;1.17;;;10.40;99.90;;;;;;5046260;28;20505;-60
2023/11/02 02:21:53;;;;;;;5.53;1.15;;;10.40;99.90;;;;;;5050548;28;20041;-60
2023/11/02 02:24:31;;;;;;;6.25;1.10;;;10.30;99.90;;;;;;5050611;28;20029;-60
2023/11/02 02:27:26;;;;;;;4.68;1.52;;;10.30;99.90;;;;;;5048829;28;20474;-60
2023/11/02 02:29:59;;;;;;;6.78;1.45;;;10.30;99.90;;;;;;5050340;28;20025;-60
2023/11/02 02:32:49;;;;;;;5.55;1.30;;;10.20;99.90;;;;;;5050222;28;20048;-60
2023/11/02 02:35:26;;;;;;;2.55;1.00;;;10.20;99.90;;;;;;5049980;28;20028;-60
2023/11/02 02:38:03;;;;;;;3.33;1.05;;;10.20;99.90;;;;;;5050128;28;20021;-60
2023/11/02 02:40:43;;;;;;;3.60;1.20;;;10.20;99.90;;;;;;5049955;28;20090;-60
2023/11/02 02:43:11;;;;;;;7.63;1.40;;;10.20;99.90;;;;;;5050340;28;20099;-60
2023/11/02 02:45:38;;;;;;;2.33;0.95;;;10.20;99.90;;;;;;5050040;28;20029;-60
2023/11/02 02:48:07;;;;;;;3.85;1.20;;;10.20;99.90;;;;;;5047957;28;20029;-60
2023/11/02 02:50:37;;;;;;;5.35;1.38;;;10.20;99.90;;;;;;5049805;28;20021;-60
2023/11/02 02:53:04;;;;;;;1.92;1.05;;;10.20;99.90;;;;;;5049964;28;20028;-60
2023/11/02 02:55:32;;;;;;;5.57;1.35;;;10.20;99.90;;;;;;5050107;28;20158;-60
2023/11/02 02:57:58;;;;;;;2.55;1.67;;;10.20;99.90;;;;;;5049395;28;20425;-60
2023/11/02 03:00:27;;;;;;;7.03;1.73;;;10.20;99.90;;;;;;5049832;28;20051;-60
2023/11/02 03:02:56;;;;;;;2.95;1.20;;;10.20;99.90;;;;;;5049104;28;20037;-60
2023/11/02 03:05:24;;;;;;;8.15;1.13;;;10.20;99.90;;;;;;5049741;28;20510;-60
2023/11/02 03:07:53;;;;;;;1.33;1.08;;;10.20;99.90;;;;;;5049306;28;20029;-60
2023/11/02 03:10:19;;;;;;;4.25;1.30;;;10.30;99.90;;;;;;5048630;28;20107;-60
2023/11/02 03:12:49;;;;;;;3.85;1.30;;;10.30;99.90;;;;;;5049416;28;20126;-60
2023/11/02 03:15:16;;;;;;;3.23;1.30;;;10.30;99.90;;;;;;5048941;28;20068;-60
2023/11/02 03:18:02;;;;;;;7.57;1.60;;;10.30;99.90;;;;;;5048861;28;20027;-60
2023/11/02 03:20:28;;;;;;;6.43;1.33;;;10.30;99.90;;;;;;5049944;28;20028;-60
2023/11/02 03:23:10;;;;;;;6.32;1.38;;;10.30;99.90;;;;;;5048866;28;20029;-60
2023/11/02 03:25:51;;;;;;;3.97;1.27;;;10.30;99.90;;;;;;5048341;28;20078;-60
2023/11/02 03:28:39;;;;;;;2.28;1.05;;;10.20;99.90;;;;;;5048844;28;20036;-60
2023/11/02 03:31:35;;;;;;;4.93;1.30;;;10.20;99.90;;;;;;5049080;28;20025;-60
2023/11/02 03:34:26;;;;;;;3.13;1.00;;;10.20;99.90;;;;;;5049196;28;20021;-60
2023/11/02 03:37:00;;;;;;;3.67;1.15;;;10.20;99.90;;;;;;5049577;28;20017;-59
2023/11/02 03:39:33;;;;;;;5.65;1.90;;;10.10;99.90;;;;;;5049267;28;20039;-60
2023/11/02 03:42:05;;;;;;;1.98;1.17;;;10.10;99.90;;;;;;5047770;28;20029;-60
2023/11/02 03:45:07;;;;;;;5.35;1.20;;;10.10;99.90;;;;;;5049084;28;20025;-59
2023/11/02 03:47:55;;;;;;;6.65;1.13;;;10.00;99.90;;;;;;5048919;28;20356;-59
2023/11/02 03:50:55;;;;;;;1.35;1.10;;;10.00;99.90;;;;;;5047736;28;20025;-60
2023/11/02 03:53:34;;;;;;;2.78;1.00;;;9.90;99.90;;;;;;5049396;28;20443;-60
2023/11/02 03:56:13;;;;;;;4.13;1.30;;;9.90;99.90;;;;;;5048935;28;20066;-59
2023/11/02 03:58:57;;;;;;;1.85;1.00;;;9.90;99.90;;;;;;5048998;28;20025;-60
2023/11/02 04:02:11;;;;;;;4.00;1.10;;;9.80;99.90;;;;;;5048959;28;20108;-60
2023/11/02 04:04:40;;;;;;;1.77;1.10;;;9.80;99.90;;;;;;5043596;28;20398;-60
2023/11/02 04:07:31;;;;;;;2.28;1.27;;;9.80;99.90;;;;;;5048827;28;20414;-60
2023/11/02 04:10:07;;;;;;;1.40;1.10;;;9.80;99.90;;;;;;5049326;28;20017;-60
2023/11/02 04:13:07;;;;;;;7.88;1.70;;;9.80;99.90;;;;;;5049096;28;20494;-60
2023/11/02 04:15:32;;;;;;;2.22;0.85;;;9.80;99.90;;;;;;5048741;28;20088;-60
2023/11/02 04:17:59;;;;;;;2.35;1.35;;;9.80;99.90;;;;;;5049038;28;20478;-59
2023/11/02 04:20:25;;;;;;;4.90;1.52;;;9.70;99.90;;;;;;5048884;28;20029;-60
2023/11/02 04:22:51;;;;;;;4.32;1.42;;;9.80;99.90;;;;;;5047562;28;20441;-60
2023/11/02 04:25:17;;;;;;;3.67;1.10;;;9.70;99.90;;;;;;5048477;28;20021;-59
2023/11/02 04:27:42;;;;;;;6.05;1.38;;;9.70;99.90;;;;;;5047344;28;20029;-59
2023/11/02 04:30:09;;;;;;;8.55;1.42;;;9.80;99.90;;;;;;5051331;28;20032;-59
2023/11/02 04:32:34;;;;;;;3.50;1.35;;;9.80;99.90;;;;;;5052724;28;20028;-59
2023/11/02 04:35:00;;;;;;;3.92;1.20;;;9.80;99.90;;;;;;5052498;28;20371;-59
2023/11/02 04:37:25;;;;;;;4.38;1.02;;;9.80;99.90;;;;;;5052300;28;20099;-59
2023/11/02 04:39:51;;;;;;;7.72;1.92;;;9.80;99.90;;;;;;5052386;28;20033;-59
2023/11/02 04:42:17;;;;;;;3.10;1.40;;;9.80;99.90;;;;;;5052109;28;20025;-59
2023/11/02 04:44:43;;;;;;;3.63;1.65;;;9.80;99.90;;;;;;5052285;28;20051;-60
2023/11/02 04:47:09;;;;;;;4.03;1.00;;;9.80;99.90;;;;;;5051168;28;20075;-59
2023/11/02 04:49:34;;;;;;;5.50;1.58;;;9.80;99.90;;;;;;5052101;28;20032;-59
2023/11/02 04:52:02;;;;;;;2.88;1.30;;;9.80;99.90;;;;;;5052068;28;20029;-59
2023/11/02 04:54:28;;;;;;;1.60;0.85;;;9.80;99.90;;;;;;5051584;28;20119;-59
2023/11/02 04:56:54;;;;;;;6.15;1.25;;;9.70;99.90;;;;;;5040780;28;20552;-59
2023/11/02 04:59:20;;;;;;;1.77;1.15;;;9.80;99.90;;;;;;5043335;28;20463;-59
2023/11/02 05:01:48;;;;;;;4.38;2.15;;;9.80;99.90;;;;;;5044066;28;20017;-60
2023/11/02 05:04:13;;;;;;;2.03;1.20;;;9.70;99.90;;;;;;5043585;28;20021;-59
2023/11/02 05:06:39;;;;;;;3.40;1.00;;;9.70;99.90;;;;;;5041554;28;20411;-60
2023/11/02 05:09:05;;;;;;;4.95;1.55;;;9.70;99.90;;;;;;5049491;28;20016;-59
2023/11/02 05:11:31;;;;;;;6.15;1.60;;;9.70;99.90;;;;;;5051867;28;20017;-59
2023/11/02 05:13:56;;;;;;;4.07;1.55;;;9.70;99.90;;;;;;5051777;28;20106;-59
2023/11/02 05:16:22;;;;;;;4.47;2.05;;;9.70;99.90;;;;;;5051544;28;20512;-59
2023/11/02 05:18:47;;;;;;;4.60;1.10;;;9.80;99.90;;;;;;5051600;28;20025;-60
2023/11/02 05:21:13;;;;;;;2.92;1.10;;;9.80;99.90;;;;;;5050208;28;20066;-59
2023/11/02 05:23:38;;;;;;;3.75;1.30;;;9.80;99.90;;;;;;5051456;28;20488;-59
2023/11/02 05:26:04;;;;;;;1.30;1.00;;;9.90;99.90;;;;;;5051623;28;20374;-59
2023/11/02 05:28:31;;;;;;;3.38;1.10;;;9.90;99.90;;;;;;5051150;28;20107;-59
2023/11/02 05:31:00;;;;;;;3.78;1.33;;;10.00;99.90;;;;;;5051562;28;20382;-59
2023/11/02 05:33:26;;;;;;;7.55;1.55;;;10.00;99.90;;;;;;5050332;28;20108;-60
2023/11/02 05:35:52;;;;;;;2.83;1.00;;;10.10;99.90;;;;;;5045153;28;20104;-59
2023/11/02 05:38:20;;;;;;;4.53;1.30;;;10.10;99.90;;;;;;5047129;28;20019;-60
2023/11/02 05:40:45;;;;;;;3.63;1.10;;;10.10;99.90;;;;;;5043498;28;20091;-60
2023/11/02 05:43:11;;;;;;;5.30;1.23;;;10.10;99.90;;;;;;5046858;28;20033;-59
2023/11/02 05:45:37;;;;;;;6.38;1.70;;;10.10;99.90;;;;;;5044926;28;20029;-59
2023/11/02 05:48:03;;;;;;;2.85;1.10;;;10.10;99.90;;;;;;5041480;28;20395;-59
2023/11/02 05:50:28;;;;;;;5.85;1.30;;;10.20;99.90;;;;;;5043469;28;20025;-59
2023/11/02 05:52:54;;;;;;;3.42;1.27;;;10.20;99.90;;;;;;5044366;28;20079;-59
2023/11/02 05:55:20;;;;;;;2.05;1.10;;;10.10;99.90;;;;;;5039303;28;20025;-60
2023/11/02 05:57:46;;;;;;;4.47;1.40;;;10.20;99.90;;;;;;5042946;28;20025;-60
2023/11/02 06:00:12;;;;;;;1.95;1.20;;;10.20;99.90;;;;;;5052899;28;20067;-60
2023/11/02 06:02:38;;;;;;;4.53;1.20;;;10.10;99.90;;;;;;5050911;28;20036;-60
2023/11/02 06:05:05;;;;;;;3.13;1.45;;;10.20;99.90;;;;;;5050643;28;20028;-60
2023/11/02 06:07:30;;;;;;;2.05;1.20;;;10.20;99.90;;;;;;5050158;28;20024;-60
2023/11/02 06:09:57;;;;;;;5.22;1.13;;;10.20;99.90;;;;;;5045552;28;20035;-60
2023/11/02 06:12:23;;;;;;;3.22;1.38;;;10.20;99.90;;;;;;5040867;28;20097;-60
2023/11/02 06:14:49;;;;;;;2.25;1.20;;;10.20;99.90;;;;;;5047448;28;20025;-60
2023/11/02 06:17:15;;;;;;;2.10;1.00;;;10.20;99.90;;;;;;5049546;28;20024;-59
2023/11/02 06:19:40;;;;;;;6.35;1.70;;;10.20;99.90;;;;;;5047851;28;20035;-59
2023/11/02 06:22:06;;;;;;;2.42;1.50;;;10.20;99.90;;;;;;5042114;28;20032;-59
2023/11/02 06:24:31;;;;;;;3.85;1.48;;;10.20;99.90;;;;;;5050165;28;20466;-60
2023/11/02 06:26:57;;;;;;;3.00;1.20;;;10.20;99.90;;;;;;5050632;28;20458;-61
2023/11/02 06:29:22;;;;;;;8.43;1.52;;;10.20;99.90;;;;;;5048788;28;20021;-60
2023/11/02 06:31:48;;;;;;;3.13;1.23;;;10.20;99.90;;;;;;5050183;28;20478;-61
2023/11/02 06:34:17;;;;;;;1.58;1.10;;;10.20;99.90;;;;;;5049950;28;20103;-61
2023/11/02 06:36:43;;;;;;;3.38;1.10;;;10.20;99.90;;;;;;5049919;28;20023;-61
2023/11/02 06:39:09;;;;;;;4.78;1.35;;;10.20;99.90;;;;;;5049430;28;20032;-60
2023/11/02 06:41:36;;;;;;;2.63;1.33;;;10.10;99.90;;;;;;5050017;28;20025;-60
2023/11/02 06:44:02;;;;;;;7.03;1.52;;;10.10;99.90;;;;;;5049865;28;20024;-60
2023/11/02 06:46:27;;;;;;;3.78;1.00;;;10.10;99.90;;;;;;5048584;28;20241;-60
2023/11/02 06:48:53;;;;;;;3.35;1.20;;;10.10;99.90;;;;;;5047992;28;20021;-60
2023/11/02 06:51:19;;;;;;;3.28;1.60;;;10.20;99.90;;;;;;5049247;28;20029;-60
2023/11/02 06:53:45;;;;;;;7.32;1.48;;;10.10;99.90;;;;;;5049791;28;20071;-60
2023/11/02 06:56:10;;;;;;;5.63;1.55;;;10.20;99.90;;;;;;5049681;28;20033;-61
2023/11/02 06:58:36;;;;;;;5.43;1.30;;;10.10;99.90;;;;;;5049529;28;20502;-60
2023/11/02 07:01:02;;;;;;;6.07;1.40;;;10.20;99.90;;;;;;5049571;28;20029;-60
2023/11/02 07:03:27;;;;;;;4.28;1.45;;;10.20;99.90;;;;;;5049445;28;20044;-59
2023/11/02 07:05:53;;;;;;;6.10;1.27;;;10.20;99.90;;;;;;5048328;28;20021;-58
2023/11/02 07:08:19;;;;;;;3.30;1.20;;;10.30;99.90;;;;;;5049204;28;20025;-58
2023/11/02 07:10:44;;;;;;;2.70;1.10;;;10.30;99.90;;;;;;5049529;28;20036;-60
2023/11/02 07:13:12;;;;;;;7.72;1.50;;;10.30;99.90;;;;;;5049092;28;20029;-60
2023/11/02 07:15:39;;;;;;;2.50;1.40;;;10.40;99.90;;;;;;5049108;28;20517;-59
2023/11/02 07:18:05;;;;;;;3.38;1.42;;;10.30;99.90;;;;;;5049175;28;20264;-60
2023/11/02 07:20:30;;;;;;;5.07;1.77;;;10.40;99.90;;;;;;5049047;28;20461;-59
2023/11/02 07:22:57;;;;;;;4.18;1.38;;;10.40;99.90;;;;;;5047885;28;20037;-60
2023/11/02 07:25:22;;;;;;;7.15;1.65;;;10.40;99.90;;;;;;5047011;28;20398;-60
2023/11/02 07:27:48;;;;;;;9.82;1.80;;;10.50;99.90;;;;;;5047562;28;20033;-60
2023/11/02 07:30:14;;;;;;;5.82;1.38;;;10.50;99.90;;;;;;5049465;28;20040;-59
2023/11/02 07:32:41;;;;;;;3.75;1.92;;;10.50;99.90;;;;;;5049304;28;20386;-60
2023/11/02 07:35:07;;;;;;;3.80;1.17;;;10.60;99.90;;;;;;5048998;28;20025;-60
2023/11/02 07:37:32;;;;;;;5.43;1.23;;;10.60;99.90;;;;;;5048842;28;20021;-61
2023/11/02 07:39:58;;;;;;;6.00;1.40;;;10.60;99.90;;;;;;5048789;28;20124;-60
2023/11/02 07:42:24;;;;;;;3.45;1.40;;;10.70;99.90;;;;;;5049022;28;20402;-60
2023/11/02 07:44:49;;;;;;;3.55;1.30;;;10.70;99.90;;;;;;5048805;28;20386;-61
2023/11/02 07:47:15;;;;;;;7.97;1.35;;;10.70;99.90;;;;;;5048885;28;20025;-60
2023/11/02 07:49:40;;;;;;;6.72;1.40;;;10.80;99.90;;;;;;5049283;28;20087;-60
2023/11/02 07:52:07;;;;;;;3.90;1.48;;;10.90;99.90;;;;;;5048806;28;20096;-61
2023/11/02 07:54:36;;;;;;;4.30;1.50;;;10.90;99.90;;;;;;5048975;28;20043;-60
2023/11/02 07:57:07;;;;;;;6.13;1.38;;;10.90;99.90;;;;;;5048876;28;20020;-59
2023/11/02 07:59:33;;;;;;;2.05;1.02;;;11.00;99.90;;;;;;5049335;28;20526;-59
2023/11/02 08:01:59;;;;;;;3.78;1.13;;;11.00;99.90;;;;;;5049191;28;20064;-59
2023/11/02 08:04:25;;;;;;;5.28;1.15;;;11.10;99.90;;;;;;5050829;28;20056;-59
2023/11/02 08:06:50;;;;;;;1.45;1.02;;;11.10;99.90;;;;;;5053169;28;20025;-60
2023/11/02 08:09:16;;;;;;;3.30;1.40;;;11.10;99.90;;;;;;5052591;28;20037;-60
2023/11/02 08:11:41;;;;;;;6.07;2.08;;;11.10;99.90;;;;;;5052991;28;20359;-59
2023/11/02 08:14:07;;;;;;;3.60;1.17;;;11.10;99.90;;;;;;5052800;28;20025;-61
2023/11/02 08:16:33;;;;;;;3.83;1.35;;;11.10;99.90;;;;;;5052716;28;20092;-60
2023/11/02 08:18:59;;;;;;;6.35;1.92;;;11.20;99.90;;;;;;5052699;28;20021;-61
2023/11/02 08:21:24;;;;;;;4.82;1.20;;;11.20;99.90;;;;;;5052491;28;20025;-60
2023/11/02 08:23:50;;;;;;;4.28;1.40;;;11.20;99.90;;;;;;5052727;28;20029;-61
2023/11/02 08:26:15;;;;;;;3.67;1.38;;;11.20;99.90;;;;;;5052419;28;20422;-60
2023/11/02 08:28:41;;;;;;;2.13;1.25;;;11.20;99.90;;;;;;5051089;28;20037;-60
2023/11/02 08:31:06;;;;;;;3.25;1.40;;;11.30;99.90;;;;;;5052297;28;20029;-61
2023/11/02 08:33:32;;;;;;;5.72;1.55;;;11.30;99.90;;;;;;5052591;28;20028;-60
2023/11/02 08:35:58;;;;;;;6.88;2.00;;;11.40;99.90;;;;;;5052319;28;20489;-60
2023/11/02 08:38:24;;;;;;;2.55;1.20;;;11.40;99.90;;;;;;5052045;28;20025;-60
2023/11/02 08:40:49;;;;;;;5.90;1.40;;;11.40;99.90;;;;;;5052127;28;20043;-60
2023/11/02 08:43:15;;;;;;;2.22;1.42;;;11.40;99.90;;;;;;5052146;28;20040;-59
2023/11/02 08:45:41;;;;;;;4.53;2.38;;;11.40;99.90;;;;;;5050932;28;20021;-60
2023/11/02 08:48:07;;;;;;;3.30;1.25;;;11.40;99.90;;;;;;5052030;28;20039;-59
2023/11/02 08:50:32;;;;;;;2.85;1.65;;;11.40;99.90;;;;;;5045944;28;20120;-60
2023/11/02 08:52:58;;;;;;;4.32;1.30;;;11.40;99.90;;;;;;5038983;28;20049;-59
2023/11/02 08:55:23;;;;;;;3.75;1.27;;;11.40;99.90;;;;;;5038923;28;20072;-59
2023/11/02 08:57:49;;;;;;;3.33;1.15;;;11.40;99.90;;;;;;5041595;28;20033;-60
2023/11/02 09:00:16;;;;;;;2.65;1.15;;;11.30;99.90;;;;;;5038237;28;20021;-60
2023/11/02 09:02:41;;;;;;;1.60;1.10;;;11.30;99.90;;;;;;5040558;28;20017;-60
2023/11/02 09:05:07;;;;;;;7.00;2.47;;;11.30;99.90;;;;;;5041795;28;20565;-59
2023/11/02 09:07:33;;;;;;;3.28;1.60;;;11.30;99.90;;;;;;5047771;28;20405;-59
2023/11/02 09:09:58;;;;;;;4.50;1.60;;;11.30;99.90;;;;;;5049034;28;20082;-59
2023/11/02 09:12:24;;;;;;;4.88;1.23;;;11.20;99.90;;;;;;5050136;28;20029;-60
2023/11/02 09:14:49;;;;;;;6.15;1.58;;;11.30;99.90;;;;;;5048500;28;20132;-60
2023/11/02 09:17:15;;;;;;;3.25;1.55;;;11.20;99.90;;;;;;5051605;28;21292;-59
2023/11/02 09:19:43;;;;;;;3.28;1.23;;;11.20;99.90;;;;;;5050378;28;20028;-60
2023/11/02 09:22:10;;;;;;;4.30;1.20;;;11.20;99.90;;;;;;5049495;28;20028;-59
2023/11/02 09:24:36;;;;;;;2.78;1.25;;;11.20;99.90;;;;;;5051315;28;20009;-60
2023/11/02 09:27:02;;;;;;;3.83;1.60;;;11.20;99.90;;;;;;5047320;28;20109;-59
2023/11/02 09:29:27;;;;;;;5.53;1.38;;;11.20;99.90;;;;;;5051124;28;20017;-60
2023/11/02 09:31:53;;;;;;;8.45;1.45;;;11.20;99.90;;;;;;5046608;28;20032;-59
2023/11/02 09:34:19;;;;;;;5.00;1.63;;;11.20;99.90;;;;;;5047674;28;20587;-61
2023/11/02 09:36:44;;;;;;;2.95;1.20;;;11.30;99.90;;;;;;5046974;28;20025;-60
2023/11/02 09:39:10;;;;;;;2.60;1.20;;;11.30;99.90;;;;;;5046663;28;20021;-60
2023/11/02 09:41:36;;;;;;;6.38;1.40;;;11.30;99.90;;;;;;5051207;28;20020;-60
2023/11/02 09:44:05;;;;;;;3.08;1.10;;;11.40;99.90;;;;;;5047547;28;20429;-60
2023/11/02 09:46:31;;;;;;;4.30;1.30;;;11.40;99.90;;;;;;5055922;28;20033;-61
2023/11/02 09:48:56;;;;;;;2.40;1.27;;;11.40;99.90;;;;;;5051046;28;20449;-60
2023/11/02 09:51:23;;;;;;;3.92;1.27;;;11.50;99.90;;;;;;5047175;28;20463;-59
2023/11/02 09:53:49;;;;;;;5.50;1.27;;;11.50;99.90;;;;;;5046800;28;20021;-60
2023/11/02 09:56:15;;;;;;;3.00;1.13;;;11.60;99.90;;;;;;5050851;28;20044;-61
2023/11/02 09:58:42;;;;;;;7.30;1.30;;;11.60;99.90;;;;;;5050652;28;20055;-60
2023/11/02 10:01:09;;;;;;;3.13;1.48;;;11.70;99.90;;;;;;5051412;28;20021;-60
2023/11/02 10:03:35;;;;;;;2.17;0.98;;;11.60;99.90;;;;;;5050898;28;20082;-60
2023/11/02 10:06:03;;;;;;;3.50;1.20;;;11.70;99.90;;;;;;5050776;28;20024;-60
2023/11/02 10:08:28;;;;;;;4.25;1.25;;;11.70;99.90;;;;;;5049883;28;20223;-60
2023/11/02 10:11:15;;;;;;;5.18;1.17;;;11.70;99.90;;;;;;5045127;28;20040;-60
2023/11/02 10:13:47;;;;;;;1.92;0.98;;;11.70;99.90;;;;;;5055113;28;20036;-60
2023/11/02 10:16:12;;;;;;;2.05;1.10;;;11.70;99.90;;;;;;5051159;28;20100;-60
2023/11/02 10:18:39;;;;;;;4.45;1.23;;;11.70;99.90;;;;;;5050327;28;20215;-60
2023/11/02 10:21:06;;;;;;;4.80;1.35;;;11.70;99.90;;;;;;5050414;28;20086;-60
2023/11/02 10:23:54;;;;;;;4.00;1.10;;;11.70;99.90;;;;;;5050855;28;20466;-60
2023/11/02 10:26:20;;;;;;;1.88;0.98;;;11.70;99.90;;;;;;5048258;28;20499;-60
2023/11/02 10:28:46;;;;;;;3.13;2.08;;;11.70;99.90;;;;;;5049162;28;20117;-60
2023/11/02 10:31:17;;;;;;;4.82;1.20;;;11.80;99.90;;;;;;5049624;28;20032;-60
2023/11/02 10:33:42;;;;;;;2.47;1.02;;;11.80;99.90;;;;;;5049986;28;20032;-60
2023/11/02 10:36:08;;;;;;;2.38;1.17;;;11.80;99.90;;;;;;5049648;28;20032;-60
2023/11/02 10:38:35;;;;;;;1.92;1.02;;;11.90;99.90;;;;;;5049759;28;20021;-60
2023/11/02 10:41:01;;;;;;;3.20;1.15;;;11.90;99.90;;;;;;5047632;28;20182;-60
2023/11/02 10:43:27;;;;;;;4.93;1.00;;;11.90;99.90;;;;;;5048524;28;20086;-60
2023/11/02 10:45:53;;;;;;;1.67;1.00;;;12.00;99.90;;;;;;5051346;28;20029;-61
2023/11/02 10:48:20;;;;;;;5.22;1.05;;;12.00;99.90;;;;;;5050670;28;20029;-60
2023/11/02 10:50:47;;;;;;;5.55;1.30;;;12.10;99.90;;;;;;5051173;28;20044;-61
2023/11/02 10:53:19;;;;;;;4.50;1.00;;;12.20;99.90;;;;;;5051178;28;20104;-60
2023/11/02 10:55:48;;;;;;;2.00;1.00;;;12.20;99.90;;;;;;5051222;28;20031;-60
2023/11/02 10:58:14;;;;;;;2.88;1.33;;;12.30;99.90;;;;;;5049567;28;20021;-61
2023/11/02 11:00:40;;;;;;;3.45;1.15;;;12.30;99.90;;;;;;5051219;28;20108;-60
2023/11/02 11:03:09;;;;;;;4.05;1.27;;;12.30;99.90;;;;;;5049596;28;20122;-60
2023/11/02 11:05:36;;;;;;;2.00;1.20;;;12.30;99.90;;;;;;5050965;28;20091;-61
2023/11/02 11:08:04;;;;;;;2.97;1.35;;;12.30;99.90;;;;;;5050683;28;20173;-60
2023/11/02 11:10:30;;;;;;;3.72;1.10;;;12.30;99.90;;;;;;5050776;28;20028;-60
2023/11/02 11:12:56;;;;;;;2.35;1.00;;;12.30;99.90;;;;;;5050454;28;20029;-60
2023/11/02 11:15:23;;;;;;;4.57;1.52;;;12.30;99.90;;;;;;5050319;28;20021;-60
2023/11/02 11:17:49;;;;;;;3.03;0.95;;;12.30;99.90;;;;;;5050461;28;20079;-60
2023/11/02 11:20:16;;;;;;;2.85;1.00;;;12.30;99.90;;;;;;5044670;28;20037;-61
2023/11/02 11:22:45;;;;;;;3.10;1.50;;;12.40;99.90;;;;;;5043715;28;20059;-61
2023/11/02 11:25:11;;;;;;;2.50;1.08;;;12.30;99.90;;;;;;5037681;28;20125;-60
2023/11/02 11:27:38;;;;;;;5.47;1.63;;;12.40;99.90;;;;;;5040301;28;20394;-61
2023/11/02 11:30:06;;;;;;;2.42;1.30;;;12.40;99.90;;;;;;5039548;28;20036;-60
2023/11/02 11:32:36;;;;;;;2.67;0.90;;;12.40;99.90;;;;;;5050408;28;20048;-60
2023/11/02 11:35:13;;;;;;;2.33;1.25;;;12.50;99.90;;;;;;5048557;28;20421;-61
2023/11/02 11:37:50;;;;;;;2.20;1.00;;;12.50;99.90;;;;;;5049273;28;20482;-61
2023/11/02 11:40:23;;;;;;;4.35;1.40;;;12.50;99.90;;;;;;5049801;28;20036;-61
2023/11/02 11:42:52;;;;;;;1.15;0.90;;;12.60;99.90;;;;;;5049994;28;20071;-61
2023/11/02 11:45:25;;;;;;;2.78;1.20;;;12.60;99.90;;;;;;5049148;28;20091;-60
2023/11/02 11:47:50;;;;;;;3.53;1.00;;;12.60;99.90;;;;;;5047560;28;20083;-61
2023/11/02 11:50:50;;;;;;;4.05;1.25;;;12.60;99.90;;;;;;5049979;28;20041;-61
2023/11/02 11:53:20;;;;;;;2.15;1.02;;;12.70;99.90;;;;;;5031378;28;20340;-60
2023/11/02 11:55:47;;;;;;;1.30;1.02;;;12.70;99.90;;;;;;5049744;28;20029;-61
2023/11/02 11:58:14;;;;;;;8.48;1.15;;;12.70;99.90;;;;;;5050313;28;20052;-61
2023/11/02 12:00:49;;;;;;;4.80;1.83;;;12.70;99.90;;;;;;5050628;28;20025;-61
2023/11/02 12:03:39;;;;;;;7.03;1.35;;;12.80;99.90;;;;;;5050406;28;20037;-60
2023/11/02 12:06:07;;;;;;;2.17;1.20;;;12.90;99.90;;;;;;5050328;28;20481;-60
2023/11/02 12:08:48;;;;;;;3.78;1.02;;;12.90;99.90;;;;;;5049535;28;20035;-61
2023/11/02 12:11:25;;;;;;;2.47;0.93;;;12.90;99.90;;;;;;5037398;28;20477;-60
2023/11/02 12:13:57;;;;;;;5.38;1.17;;;12.90;99.90;;;;;;5047368;28;20086;-60
2023/11/02 12:16:30;;;;;;;7.32;2.58;;;12.90;99.90;;;;;;5066107;28;20022;-61
2023/11/02 12:18:56;;;;;;;2.55;1.00;;;13.00;99.90;;;;;;5069500;28;20028;-62
2023/11/02 12:21:24;;;;;;;3.45;1.42;;;12.90;99.90;;;;;;5066113;28;20029;-61
2023/11/02 12:23:54;;;;;;;4.68;1.20;;;13.00;99.90;;;;;;5069828;28;20017;-62
2023/11/02 12:26:20;;;;;;;2.88;1.08;;;13.00;99.90;;;;;;5069510;28;20412;-62
2023/11/02 12:28:50;;;;;;;2.15;0.75;;;12.90;99.90;;;;;;5068280;28;20024;-62
2023/11/02 12:31:25;;;;;;;3.88;1.15;;;13.00;99.90;;;;;;5064943;28;20081;-61
2023/11/02 12:33:51;;;;;;;1.92;1.08;;;12.90;99.90;;;;;;5066165;28;20052;-61
2023/11/02 12:36:17;;;;;;;4.43;1.60;;;12.90;99.90;;;;;;5069702;28;20052;-61
2023/11/02 12:38:45;;;;;;;3.22;1.10;;;12.90;99.90;;;;;;5069678;28;20016;-60
2023/11/02 12:41:23;;;;;;;3.58;1.25;;;12.90;99.90;;;;;;5065075;28;20032;-61
2023/11/02 12:43:48;;;;;;;2.95;1.38;;;12.90;99.90;;;;;;5069705;28;20029;-61
2023/11/02 12:46:14;;;;;;;2.83;1.15;;;13.00;99.90;;;;;;5069594;28;20029;-61
2023/11/02 12:48:41;;;;;;;1.35;0.90;;;13.00;99.90;;;;;;5055915;28;20408;-63
2023/11/02 12:51:15;;;;;;;2.58;0.80;;;13.00;99.90;;;;;;5067554;28;20112;-62
2023/11/02 12:53:42;;;;;;;1.40;1.30;;;13.00;99.90;;;;;;5067733;28;20470;-62
2023/11/02 12:56:08;;;;;;;2.15;1.40;;;13.00;99.90;;;;;;5071469;28;20465;-62
2023/11/02 12:58:36;;;;;;;2.85;1.20;;;13.00;99.90;;;;;;5068042;28;20467;-61
2023/11/02 13:01:01;;;;;;;4.47;1.15;;;13.00;99.90;;;;;;5053510;28;20074;-62
2023/11/02 13:03:27;;;;;;;4.07;0.90;;;13.00;99.90;;;;;;5051642;28;20033;-61